Nome, AK (99762)

3:56 AM AKST on December 03, 2016 (GMT -0900)
Nome | | Change Station

Elev 36 ft 64.51 °N, 165.45 °W | Updated 3 minutes ago

Clear
Clear
-9 °F
Feels Like -9 °F
N
0
Wind Variable Wind from North

Today
High -- | Low -- °F
--% Chance of Precip.
Yesterday
High -- | Low -- °F
Precip. -- in
Pressure 30.39 in
Visibility 10.0 miles
Clouds Clear
Dew Point -13 °F
Humidity 83%
Rainfall 0.00 in
Snow Depth Not available.
11:32 AM 4:10 PM
Waxing Crescent, 14% visible
METAR PAOM 031253Z 00000KT 10SM CLR M23/M25 A3038 RMK SLP289 T12281250 $ VIA AUTODIAL
Pressure 30.39 in
Visibility 10.0 miles
Clouds Clear
Dew Point -13 °F
Humidity 83%
Rainfall 0.00 in
Snow Depth Not available.
11:32 AM 4:10 PM
Waxing Crescent, 14% visible
METAR PAOM 031253Z 00000KT 10SM CLR M23/M25 A3038 RMK SLP289 T12281250 $ VIA AUTODIAL

10-Day Weather Forecast

Almanac

Astronomy

Dec. 03, 2016 Rise Set
Actual Time
Civil Twilight
Nautical Twilight
Astronomical Twilight
Moon
Length of Visible Light
Length of Day
Tomorrow will be .
, % of the Moon is Illuminated

Today's Extremes

State Highs State Lows

Community

WunderPhotos

Upload Photos

1,955,443 photos uploaded!

WunderBlog® & News

Nearby

Air Quality

  Air Quality AQ Index Pollutant
Not available.

Snow Depth

Station Depth Elevation

Earthquake Activity

City Distance Mag. Time & Date
Minimum magnitude displayed is 2.5.

Coastal Water Temperatures

Place Temperature

Stations

Nearby Weather Stations

Station Location Temp. Windchill Dew Point Humidity Wind Precip. Elev Updated Type
                   

Watches & Warnings

There are currently no watches in effect.